Cape Campbell, New Zealand
Current Conditions -  °F | °C
As of 1:00 AM on Sunday 21 Dec 2014 (Local Time) from NZWN Reporting Station
Light Rain Light Rain  
Wind Chill: 63°   Ceiling: 1000
Heat Index: 63°   Visibility: 6mi
Dew Point: 61°   Wind: 12mph
Humidity: 94%   Direction: 10°N
Pressure: 29.77"   Gusts: NA
Location:  41.72°S, 174.26°E
Report Text: NZWN 201200Z AUTO 01010KT 9999 -RA BKN010/// BKN045///BKN065/// 17/16 Q1008 TEMPO 4000 RA BKN008
Loading
Personal Weather Stations






























Interactive Weather Map New forecast layout! Learn more

10-Day Weather Forecast

Advertisements
Track Severe Weather on mobile